Etusivu
METAR-TAF:

METAR-TAF

Lentoasemat :

Clarion Municipal Airport

Clarion, Iowa, Yhdysvallat

Leveyspiiri: 42-45N, Pituuspiiri: 093-46W, korkeus merenpinnasta: 354 m

Tämänhetkinen sää

Tämä raportti tehtiin 13 minuuttia sitten, kello 10.35 UTC
Tuuli 11 kn luoteesta
Lämpötila -8°C
Kosteus 100%
Ilmanpaine 1020 hPa
Näkyvyys: 3.2 km
Pilvistä 300 ft:n korkeudessa
utua

METAR: KCAV 281035Z AUTO 31011KT 2SM BR OVC003 M08/M08 A3013 RMK A01

Aika: 04:48 (10:48 UTC)


TAF: puuttuu

Säähavainnot ja -ennusteet yli 4000 lentoasemalta (METAR- ja TAF-raportit).

Käytössä olevat sääasemat on merkitty karttaan keltaisilla ja punaisilla pisteillä.

Aseta hiiri pisteen päälle nähdäksesi sääaseman nimen.

Klikkaa sitten nähdäksesi säähavainnot ja -ennusteet.

Kartan vaihtaminen: klikkaa mustalla rastilla varustettuja vihreitä pisteitä, niin voit zoomata sisään; viivalla varustettua vihreää pistettä, niin voit zoomata ulos tai vihreitä nuolia, niin pääset viereisille kartoille.


METAR-TAF: